Time;durP1;ratioP1;P1;durP2;ratioP2;P2;SDS_P1;SDS_P2;PMS_P1;PMS_P2;Temp;Humidity;BMP_temperature;BMP_pressure;BME280_temperature;BME280_humidity;BME280_pressure;Samples;Min_cycle;Max_cycle;Signal;HPM_P1;HPM_P2
2021/12/24 00:01:11;;;;;;;26.75;16.20;;;;;;;5.68;100.00;99539.19;4878591;29;20112;-88
2021/12/24 00:03:41;;;;;;;31.02;17.38;;;;;;;5.63;100.00;99534.13;4873729;29;20052;-89
2021/12/24 00:06:10;;;;;;;28.20;17.13;;;;;;;5.58;100.00;99525.56;4877040;29;20075;-89
2021/12/24 00:08:42;;;;;;;26.00;16.83;;;;;;;5.54;100.00;99523.97;4873505;29;20049;-89
2021/12/24 00:11:13;;;;;;;26.25;16.63;;;;;;;5.73;100.00;99545.97;4881249;29;20080;-89
2021/12/24 00:13:45;;;;;;;28.75;17.05;;;;;;;5.80;100.00;99544.81;4876448;29;20057;-88
2021/12/24 00:16:26;;;;;;;27.55;16.70;;;;;;;5.77;100.00;99550.19;4887120;29;20085;-90
2021/12/24 00:19:12;;;;;;;30.20;17.05;;;;;;;5.83;100.00;99557.78;4884410;29;20060;-89
2021/12/24 00:35:35;;;;;;;32.70;16.88;;;;;;;5.84;100.00;99546.38;4878364;29;20737;-88
2021/12/24 00:38:07;;;;;;;31.23;17.83;;;;;;;5.75;100.00;99528.38;4877719;29;20059;-88
2021/12/24 00:40:45;;;;;;;33.45;18.70;;;;;;;5.86;100.00;99549.78;4878754;29;20054;-89
2021/12/24 00:43:15;;;;;;;33.85;18.75;;;;;;;5.75;100.00;99524.88;4875627;29;20057;-90
2021/12/24 00:45:44;;;;;;;32.88;18.48;;;;;;;5.90;100.00;99545.31;4879584;29;20156;-88
2021/12/24 00:48:14;;;;;;;31.90;17.92;;;;;;;5.63;100.00;99505.25;4878346;29;20057;-88
2021/12/24 00:50:54;;;;;;;31.48;17.08;;;;;;;5.79;100.00;99529.97;4898467;29;20063;-88
2021/12/24 00:56:00;;;;;;;31.63;17.92;;;;;;;5.85;100.00;99513.06;4890311;29;20059;-89
2021/12/24 00:58:27;;;;;;;30.75;17.42;;;;;;;5.72;100.00;99486.47;4880402;29;20053;-88
2021/12/24 01:01:00;;;;;;;31.35;17.67;;;;;;;5.73;100.00;99493.44;4873186;29;20138;-89
2021/12/24 01:03:29;;;;;;;27.25;17.17;;;;;;;6.03;100.00;99535.13;4873294;29;20536;-88
2021/12/24 01:05:56;;;;;;;29.48;17.10;;;;;;;5.77;100.00;99492.41;4880109;29;20057;-89
2021/12/24 01:08:24;;;;;;;31.45;17.65;;;;;;;5.87;100.00;99493.69;4883158;29;20421;-89
2021/12/24 01:10:56;;;;;;;34.10;18.98;;;;;;;5.93;100.00;99509.25;4882510;29;20113;-89
2021/12/24 01:13:27;;;;;;;26.83;17.63;;;;;;;6.02;100.00;99525.53;4871682;29;20057;-89
2021/12/24 01:16:06;;;;;;;27.85;16.20;;;;;;;5.94;100.00;99508.34;4877406;29;20174;-89
2021/12/24 01:23:51;;;;;;;28.60;16.63;;;;;;;5.90;100.00;99496.25;4877289;29;20121;-88
2021/12/24 01:26:41;;;;;;;26.50;17.27;;;;;;;5.96;100.00;99509.13;4876374;29;20045;-89
2021/12/24 01:29:38;;;;;;;29.02;16.63;;;;;;;5.91;100.00;99511.09;4881669;29;20056;-89
2021/12/24 01:40:50;;;;;;;24.85;15.95;;;;;;;6.11;100.00;99531.28;4869824;29;20049;-89
2021/12/24 01:43:14;;;;;;;27.88;16.45;;;;;;;6.08;100.00;99526.16;4870146;29;20416;-89
2021/12/24 01:45:46;;;;;;;27.35;16.17;;;;;;;6.07;100.00;99508.66;4875119;29;20437;-89
2021/12/24 01:48:13;;;;;;;22.90;15.15;;;;;;;6.22;100.00;99521.16;4884789;29;20064;-89
2021/12/24 01:50:47;;;;;;;23.42;15.40;;;;;;;6.05;100.00;99491.25;4880310;29;20068;-89
2021/12/24 01:53:17;;;;;;;23.30;15.18;;;;;;;6.24;100.00;99513.19;4882044;29;20524;-88
2021/12/24 01:55:45;;;;;;;26.15;15.70;;;;;;;6.26;100.00;99514.84;4877386;29;20060;-88
2021/12/24 01:58:12;;;;;;;26.17;15.95;;;;;;;6.23;100.00;99511.50;4881285;29;20523;-88
2021/12/24 02:00:46;;;;;;;25.70;15.77;;;;;;;6.28;100.00;99502.50;4887421;29;20152;-89
2021/12/24 02:03:13;;;;;;;31.38;16.15;;;;;;;6.40;100.00;99521.28;4866703;29;20053;-88
2021/12/24 02:05:43;;;;;;;26.52;15.55;;;;;;;6.21;100.00;99487.03;4876929;29;20146;-88
2021/12/24 02:08:11;;;;;;;25.13;14.90;;;;;;;6.32;100.00;99487.41;4887620;29;20120;-89
2021/12/24 02:10:39;;;;;;;25.15;14.75;;;;;;;6.34;100.00;99493.47;4880344;29;20109;-89
2021/12/24 02:13:06;;;;;;;23.33;14.98;;;;;;;6.12;100.00;99466.44;4881028;29;20049;-88
2021/12/24 02:16:37;;;;;;;25.00;15.00;;;;;;;6.09;100.00;99458.66;4886093;29;20059;-87
2021/12/24 02:28:13;;;;;;;27.02;16.85;;;;;;;6.32;100.00;99503.19;4871707;29;20053;-88
2021/12/24 02:29:38;;;;;;;29.58;16.60;;;;;;;6.37;100.00;99488.06;4874397;29;20053;-88
2021/12/24 02:32:05;;;;;;;26.58;15.65;;;;;;;6.16;100.00;99437.28;4880333;29;20111;-89
2021/12/24 02:34:32;;;;;;;27.35;16.38;;;;;;;5.98;100.00;99415.28;4878819;29;20053;-88
2021/12/24 02:36:59;;;;;;;26.50;16.60;;;;;;;6.03;100.00;99422.13;4875286;29;20152;-88
2021/12/24 02:39:26;;;;;;;29.73;17.13;;;;;;;6.19;100.00;99438.94;4881432;29;20048;-89
2021/12/24 02:41:53;;;;;;;26.65;16.55;;;;;;;6.19;100.00;99439.78;4884674;29;20085;-88
2021/12/24 02:44:20;;;;;;;27.95;16.67;;;;;;;5.99;100.00;99419.63;4875429;29;20052;-88
2021/12/24 02:55:09;;;;;;;22.25;14.82;;;;;;;6.22;100.00;99446.69;4880092;29;20080;-88
2021/12/24 02:57:38;;;;;;;27.02;15.63;;;;;;;6.23;100.00;99457.13;4880773;29;20087;-88
2021/12/24 03:00:19;;;;;;;28.88;16.52;;;;;;;6.03;100.00;99420.34;4873868;29;20067;-91
2021/12/24 03:02:48;;;;;;;26.05;16.40;;;;;;;6.10;100.00;99441.97;4882455;29;20141;-89
2021/12/24 03:05:16;;;;;;;28.00;15.73;;;;;;;6.27;100.00;99466.59;4886215;29;20056;-88
2021/12/24 03:07:43;;;;;;;27.13;16.95;;;;;;;6.20;100.00;99449.38;4883018;29;20049;-88
2021/12/24 03:10:16;;;;;;;25.02;16.23;;;;;;;6.18;100.00;99445.97;4884452;29;20610;-88
2021/12/24 03:12:46;;;;;;;24.73;15.93;;;;;;;5.91;100.00;99400.72;4874325;29;20057;-88
2021/12/24 03:15:16;;;;;;;28.05;16.92;;;;;;;5.98;100.00;99402.16;4875603;29;20121;-88
2021/12/24 03:17:48;;;;;;;27.42;16.40;;;;;;;6.04;100.00;99413.31;4872561;29;20049;-87
2021/12/24 03:20:16;;;;;;;30.85;16.33;;;;;;;6.28;100.00;99442.03;4880982;29;20104;-88
2021/12/24 03:23:07;;;;;;;25.80;15.23;;;;;;;6.14;100.00;99419.91;4876910;29;20060;-89
2021/12/24 03:25:30;;;;;;;26.27;15.95;;;;;;;6.16;100.00;99425.91;4868456;29;20728;-88
2021/12/24 03:27:57;;;;;;;25.98;15.35;;;;;;;6.14;100.00;99433.03;4877229;29;20167;-88
2021/12/24 03:30:25;;;;;;;25.88;16.17;;;;;;;6.10;100.00;99419.19;4876633;29;20044;-87
2021/12/24 03:32:53;;;;;;;25.15;15.52;;;;;;;6.33;100.00;99444.44;4874925;29;20057;-88
2021/12/24 03:35:20;;;;;;;27.45;16.55;;;;;;;6.29;100.00;99437.63;4856762;29;20053;-88
2021/12/24 03:37:47;;;;;;;29.23;16.85;;;;;;;6.12;100.00;99408.59;4876589;29;20063;-88
2021/12/24 03:40:16;;;;;;;25.17;15.45;;;;;;;6.39;100.00;99454.69;4854153;29;20044;-88
2021/12/24 03:42:43;;;;;;;24.52;14.50;;;;;;;6.34;100.00;99433.00;4874544;29;20152;-88
2021/12/24 03:45:26;;;;;;;21.35;14.48;;;;;;;6.43;100.00;99456.25;4871375;29;20072;-88
2021/12/24 03:47:58;;;;;;;26.17;15.20;;;;;;;6.24;100.00;99421.19;4875008;29;20060;-88
2021/12/24 03:50:39;;;;;;;27.23;15.80;;;;;;;6.30;100.00;99423.53;4876580;29;20521;-88
2021/12/24 03:54:55;;;;;;;25.35;14.43;;;;;;;6.40;100.00;99451.13;4875114;29;20057;-88
2021/12/24 03:55:52;;;;;;;22.73;14.02;;;;;;;6.46;100.00;99434.19;4871610;29;20068;-88
2021/12/24 03:58:19;;;;;;;25.17;14.40;;;;;;;6.40;100.00;99427.47;4871617;29;20063;-88
2021/12/24 04:00:48;;;;;;;21.98;14.55;;;;;;;6.43;100.00;99432.59;4874574;29;20157;-89
2021/12/24 04:03:16;;;;;;;20.42;13.57;;;;;;;6.41;100.00;99429.19;4874218;29;20176;-88
2021/12/24 04:05:43;;;;;;;21.67;13.60;;;;;;;6.42;100.00;99428.25;4866577;29;20469;-88
2021/12/24 04:08:10;;;;;;;23.42;13.52;;;;;;;6.36;100.00;99411.88;4875223;29;20061;-88
2021/12/24 04:10:40;;;;;;;20.48;13.77;;;;;;;6.29;100.00;99385.03;4872306;29;20107;-88
2021/12/24 04:13:12;;;;;;;20.80;12.90;;;;;;;6.49;100.00;99407.78;4876171;29;20060;-88
2021/12/24 04:15:42;;;;;;;20.10;13.50;;;;;;;6.49;100.00;99407.78;4876510;29;20071;-89
2021/12/24 04:18:40;;;;;;;19.70;12.77;;;;;;;6.57;100.00;99416.19;4881518;29;20061;-88
2021/12/24 04:26:40;;;;;;;20.50;12.23;;;;;;;6.76;100.00;99405.66;4878716;29;20142;-88
2021/12/24 04:29:09;;;;;;;19.88;11.73;;;;;;;6.87;100.00;99433.16;4879839;29;20067;-88
2021/12/24 04:31:44;;;;;;;18.77;12.13;;;;;;;6.73;100.00;99417.16;4886341;29;20048;-88
2021/12/24 04:34:13;;;;;;;18.27;12.32;;;;;;;6.77;100.00;99428.41;4882281;29;20061;-88
2021/12/24 05:04:04;;;;;;;18.00;11.93;;;;;;;6.98;100.00;99427.38;4877822;29;20147;-88
2021/12/24 05:06:37;;;;;;;17.40;10.07;;;;;;;6.95;100.00;99409.09;4872976;29;20057;-88
2021/12/24 05:09:08;;;;;;;16.15;10.98;;;;;;;6.91;100.00;99391.78;4875324;29;20417;-89
2021/12/24 05:11:35;;;;;;;15.02;10.45;;;;;;;7.15;100.00;99423.94;4878470;29;20041;-87
2021/12/24 05:14:03;;;;;;;15.70;10.23;;;;;;;7.09;100.00;99400.53;4875461;29;20068;-90
2021/12/24 05:21:55;;;;;;;13.63;9.40;;;;;;;7.09;100.00;99430.34;4879715;29;20190;-87
2021/12/24 05:24:26;;;;;;;17.15;10.23;;;;;;;7.19;100.00;99431.63;4878250;29;20475;-89
2021/12/24 05:26:57;;;;;;;15.95;10.05;;;;;;;7.06;100.00;99408.59;4871645;29;20114;-87
2021/12/24 05:29:24;;;;;;;14.73;10.17;;;;;;;7.15;100.00;99422.16;4878280;29;20057;-86
2021/12/24 05:31:52;;;;;;;16.42;10.45;;;;;;;7.27;100.00;99442.63;4875697;29;20057;-87
2021/12/24 05:34:19;;;;;;;14.98;10.35;;;;;;;7.32;100.00;99456.44;4879048;29;20170;-87
2021/12/24 05:36:47;;;;;;;13.98;10.02;;;;;;;7.12;100.00;99424.94;4873343;29;20100;-88
2021/12/24 05:39:15;;;;;;;16.80;10.27;;;;;;;6.97;100.00;99407.25;4870619;29;20068;-87
2021/12/24 05:41:42;;;;;;;15.75;10.40;;;;;;;7.22;100.00;99443.78;4879268;29;20124;-87
2021/12/24 05:44:10;;;;;;;16.77;10.30;;;;;;;7.02;100.00;99405.25;4875871;29;20440;-87
2021/12/24 05:46:38;;;;;;;15.82;10.73;;;;;;;7.14;100.00;99417.81;4874140;29;20140;-89
2021/12/24 05:49:05;;;;;;;17.80;11.43;;;;;;;7.17;100.00;99412.41;4876943;29;20049;-88
2021/12/24 05:51:33;;;;;;;16.95;11.75;;;;;;;7.34;100.00;99459.00;4889003;29;20045;-89
2021/12/24 05:54:01;;;;;;;15.40;10.50;;;;;;;7.30;100.00;99458.28;4892240;29;20077;-88
2021/12/24 05:56:27;;;;;;;16.15;10.75;;;;;;;7.09;100.00;99414.53;4876810;29;20073;-89
2021/12/24 05:58:55;;;;;;;19.40;11.20;;;;;;;6.99;100.00;99393.09;4869971;29;20065;-88
2021/12/24 06:01:23;;;;;;;15.48;10.93;;;;;;;7.09;100.00;99414.53;4880640;29;20057;-89
2021/12/24 06:03:51;;;;;;;16.65;11.13;;;;;;;7.01;100.00;99388.63;4874372;29;20084;-89
2021/12/24 06:06:18;;;;;;;15.27;11.30;;;;;;;7.20;100.00;99417.53;4875277;29;20493;-89
2021/12/24 06:08:45;;;;;;;15.68;10.48;;;;;;;7.18;100.00;99408.00;4878995;29;20144;-89
2021/12/24 06:11:13;;;;;;;17.00;10.98;;;;;;;7.36;100.00;99431.66;4884337;29;20060;-88
2021/12/24 06:13:40;;;;;;;14.32;9.75;;;;;;;7.36;100.00;99413.22;4877451;29;20065;-89
2021/12/24 06:16:07;;;;;;;14.98;10.48;;;;;;;7.42;100.00;99419.94;4875950;29;20056;-89
2021/12/24 06:18:38;;;;;;;17.90;11.55;;;;;;;7.52;100.00;99428.25;4878244;29;20081;-87
2021/12/24 06:21:05;;;;;;;16.63;10.68;;;;;;;7.21;100.00;99381.53;4884458;29;20085;-87
2021/12/24 06:23:34;;;;;;;15.48;10.57;;;;;;;7.40;100.00;99403.38;4876598;29;20061;-87
2021/12/24 06:26:04;;;;;;;16.88;10.80;;;;;;;7.23;100.00;99375.25;4876363;29;20113;-87
2021/12/24 06:28:34;;;;;;;16.90;10.90;;;;;;;7.51;100.00;99421.28;4886557;29;20801;-86
2021/12/24 06:31:02;;;;;;;15.50;9.57;;;;;;;7.56;100.00;99437.69;4890176;29;20048;-87
2021/12/24 06:33:29;;;;;;;17.17;10.65;;;;;;;7.54;100.00;99429.03;4894609;29;20077;-87
2021/12/24 06:35:57;;;;;;;18.52;10.98;;;;;;;7.39;100.00;99405.19;4884319;29;20057;-88
2021/12/24 06:38:24;;;;;;;16.08;10.57;;;;;;;7.49;100.00;99423.16;4882326;29;20057;-88
2021/12/24 06:40:54;;;;;;;16.38;11.38;;;;;;;7.56;100.00;99435.06;4872635;29;20097;-88
2021/12/24 06:43:21;;;;;;;19.63;11.18;;;;;;;7.28;100.00;99382.91;4876822;29;20049;-88
2021/12/24 06:45:52;;;;;;;16.30;10.75;;;;;;;7.38;100.00;99400.84;4879207;29;20109;-88
2021/12/24 06:48:18;;;;;;;18.17;10.13;;;;;;;7.32;100.00;99385.31;4879133;29;20599;-87
2021/12/24 06:50:45;;;;;;;15.30;10.50;;;;;;;7.50;100.00;99424.84;4880610;29;20096;-88
2021/12/24 06:53:13;;;;;;;16.55;10.48;;;;;;;7.36;100.00;99404.47;4875285;29;20193;-87
2021/12/24 06:55:40;;;;;;;15.60;10.65;;;;;;;7.38;100.00;99414.00;4881947;29;20056;-87
2021/12/24 06:58:07;;;;;;;18.33;11.07;;;;;;;7.42;100.00;99427.00;4874014;29;20064;-87
2021/12/24 07:00:35;;;;;;;15.48;10.88;;;;;;;7.45;100.00;99438.25;4873158;29;20101;-88
2021/12/24 07:03:02;;;;;;;17.95;10.95;;;;;;;7.36;100.00;99431.66;4884280;29;20057;-87
2021/12/24 07:05:32;;;;;;;17.35;11.32;;;;;;;7.35;100.00;99427.31;4895356;29;20102;-88
2021/12/24 07:07:59;;;;;;;16.02;10.50;;;;;;;7.33;100.00;99437.06;4893916;29;20049;-85
2021/12/24 07:10:26;;;;;;;18.58;11.70;;;;;;;7.33;100.00;99439.72;4897278;29;20056;-87
2021/12/24 07:12:53;;;;;;;18.55;11.60;;;;;;;7.17;100.00;99408.94;4898945;29;20067;-88
2021/12/24 07:15:20;;;;;;;17.50;11.27;;;;;;;7.25;100.00;99438.34;4896593;29;20046;-89
2021/12/24 07:17:49;;;;;;;15.57;10.60;;;;;;;7.15;100.00;99423.94;4891880;29;20577;-89
2021/12/24 07:20:16;;;;;;;15.88;10.95;;;;;;;7.30;100.00;99439.00;4895073;29;20053;-88
2021/12/24 07:22:43;;;;;;;16.75;10.57;;;;;;;7.48;100.00;99476.75;4894464;29;20056;-89
2021/12/24 07:25:11;;;;;;;14.90;10.75;;;;;;;7.43;100.00;99476.13;4882078;29;20053;-89
2021/12/24 07:27:37;;;;;;;16.50;10.68;;;;;;;7.39;100.00;99476.28;4876052;29;20045;-88
2021/12/24 07:30:10;;;;;;;15.88;10.98;;;;;;;7.24;100.00;99437.50;4878912;29;20512;-88
2021/12/24 07:32:38;;;;;;;15.35;10.45;;;;;;;7.37;100.00;99451.81;4871244;29;20049;-89
2021/12/24 07:35:05;;;;;;;16.35;11.00;;;;;;;7.25;100.00;99419.91;4874493;29;20280;-88
2021/12/24 07:37:32;;;;;;;16.63;10.63;;;;;;;7.30;100.00;99428.47;4875341;29;20136;-89
2021/12/24 07:40:02;;;;;;;18.98;11.05;;;;;;;7.24;100.00;99413.81;4877463;29;20048;-88
2021/12/24 07:42:29;;;;;;;17.15;10.82;;;;;;;7.47;100.00;99461.88;4877301;29;20112;-89
2021/12/24 07:44:57;;;;;;;15.18;10.40;;;;;;;7.34;100.00;99430.03;4875401;29;20136;-89
2021/12/24 07:47:28;;;;;;;13.85;10.00;;;;;;;7.36;100.00;99430.81;4876343;29;20520;-89
2021/12/24 07:50:04;;;;;;;15.82;10.48;;;;;;;7.65;100.00;99476.78;4875806;29;20104;-89
2021/12/24 07:52:32;;;;;;;15.70;10.63;;;;;;;7.53;100.00;99451.06;4876576;29;20136;-91
2021/12/24 07:54:58;;;;;;;15.68;9.93;;;;;;;7.62;100.00;99476.94;4876485;29;20083;-89
2021/12/24 07:57:43;;;;;;;16.10;10.13;;;;;;;7.57;100.00;99463.13;4873382;29;20055;-89
2021/12/24 08:00:10;;;;;;;17.80;10.27;;;;;;;7.36;100.00;99423.75;4875423;29;20087;-89
2021/12/24 08:02:37;;;;;;;18.10;10.13;;;;;;;7.52;100.00;99450.19;4873214;29;20049;-88
2021/12/24 08:05:04;;;;;;;15.38;10.95;;;;;;;7.74;100.00;99481.59;4879646;29;20128;-89
2021/12/24 08:07:31;;;;;;;16.20;10.43;;;;;;;7.64;100.00;99457.47;4873306;29;20102;-89
2021/12/24 08:09:58;;;;;;;17.90;10.32;;;;;;;7.61;99.72;99455.00;4873951;29;20101;-88
2021/12/24 08:12:25;;;;;;;15.10;10.73;;;;;;;7.76;98.30;99450.72;4875780;29;20045;-89
2021/12/24 08:14:52;;;;;;;17.63;10.63;;;;;;;7.67;98.53;99438.03;4873746;29;20049;-88
2021/12/24 08:17:19;;;;;;;17.00;11.00;;;;;;;7.86;98.56;99462.53;4872363;29;20048;-89
2021/12/24 08:19:46;;;;;;;15.93;10.73;;;;;;;7.75;98.54;99443.75;4875887;29;20045;-88
2021/12/24 08:22:13;;;;;;;16.40;10.40;;;;;;;7.85;98.34;99458.19;4874705;29;20501;-88
2021/12/24 08:24:40;;;;;;;15.55;10.30;;;;;;;7.89;98.28;99448.31;4868767;29;20493;-89
2021/12/24 08:27:08;;;;;;;16.75;9.68;;;;;;;7.78;97.77;99417.25;4872370;29;20054;-89
2021/12/24 08:29:36;;;;;;;14.98;10.32;;;;;;;7.75;97.69;99407.72;4875051;29;20140;-87
2021/12/24 08:32:04;;;;;;;15.57;10.05;;;;;;;7.94;97.08;99428.72;4872953;29;20045;-87
2021/12/24 08:34:32;;;;;;;14.65;9.57;;;;;;;8.00;96.65;99428.41;4875067;29;20056;-87
2021/12/24 08:36:59;;;;;;;14.63;9.80;;;;;;;8.04;96.34;99423.81;4873055;29;20121;-87
2021/12/24 08:39:29;;;;;;;17.63;10.52;;;;;;;7.84;96.00;99395.00;4877511;29;20056;-87
2021/12/24 08:41:56;;;;;;;17.43;9.97;;;;;;;7.92;96.23;99412.13;4873617;29;20052;-87
2021/12/24 08:44:27;;;;;;;16.75;10.70;;;;;;;7.92;96.14;99416.53;4870227;29;20532;-87
2021/12/24 08:47:04;;;;;;;16.63;10.15;;;;;;;7.93;95.65;99403.28;4867107;29;20516;-88
2021/12/24 08:49:31;;;;;;;14.98;10.10;;;;;;;7.82;95.68;99387.19;4871817;29;20675;-87
2021/12/24 08:51:59;;;;;;;14.23;9.82;;;;;;;8.15;95.61;99439.94;4874586;29;20049;-88
2021/12/24 08:54:26;;;;;;;15.43;9.60;;;;;;;8.03;95.56;99420.31;4873474;29;20446;-88
2021/12/24 08:56:54;;;;;;;16.42;9.88;;;;;;;8.18;95.28;99450.34;4876301;29;20053;-88
2021/12/24 08:59:23;;;;;;;14.27;9.45;;;;;;;8.14;95.45;99440.03;4869953;29;20057;-88
2021/12/24 09:01:51;;;;;;;15.32;10.05;;;;;;;8.10;95.05;99418.22;4877504;29;20627;-88
2021/12/24 09:04:20;;;;;;;16.98;9.90;;;;;;;8.00;94.10;99393.28;4873286;29;20057;-88
2021/12/24 09:06:46;;;;;;;15.60;8.77;;;;;;;8.21;93.84;99426.41;4879302;29;20057;-87
2021/12/24 09:09:13;;;;;;;17.15;9.48;;;;;;;8.33;92.85;99435.53;4873000;29;20176;-88
2021/12/24 09:11:44;;;;;;;15.15;8.68;;;;;;;8.31;91.99;99416.25;4878403;29;20041;-88
2021/12/24 09:14:17;;;;;;;18.67;8.88;;;;;;;8.34;91.55;99424.03;4873089;29;20057;-91
2021/12/24 09:16:45;;;;;;;16.83;9.65;;;;;;;8.33;91.07;99422.34;4870624;29;20045;-90
2021/12/24 09:19:16;;;;;;;13.63;9.07;;;;;;;8.35;90.77;99417.81;4872679;29;20053;-91
2021/12/24 09:22:28;;;;;;;;;;;;;;;;;;;;;
2021/12/24 09:25:00;;;;;;;16.63;8.98;;;;;;;8.40;90.67;99405.22;4875072;29;20057;-90
2021/12/24 09:27:30;;;;;;;12.10;8.35;;;;;;;8.37;90.51;99398.31;4875852;29;20054;-91
2021/12/24 09:30:00;;;;;;;;;;;;;;;8.67;89.97;99434.53;4886403;29;20076;-92
2021/12/24 09:32:42;;;;;;;11.32;7.80;;;;;;;8.48;89.92;99403.03;4876805;29;20371;-92
2021/12/24 09:35:11;;;;;;;11.85;7.75;;;;;;;8.48;89.90;99408.31;4882236;29;20129;-90
2021/12/24 09:37:40;;;;;;;13.18;8.05;;;;;;;8.59;89.43;99407.72;4877589;29;20068;-91
2021/12/24 09:40:11;;;;;;;15.48;8.13;;;;;;;8.61;89.66;99414.63;4876763;29;20057;-91
2021/12/24 09:42:38;;;;;;;12.35;7.65;;;;;;;8.62;88.59;99403.16;4880826;29;20425;-90
2021/12/24 09:45:07;;;;;;;15.05;7.47;;;;;;;8.71;88.52;99404.41;4875723;29;20053;-91
2021/12/24 09:47:34;;;;;;;14.70;8.05;;;;;;;8.89;88.26;99431.59;4875770;29;20049;-89
2021/12/24 09:50:03;;;;;;;12.68;7.30;;;;;;;8.72;88.26;99403.47;4882376;29;20071;-90
2021/12/24 09:52:31;;;;;;;12.18;7.47;;;;;;;8.88;88.30;99424.59;4876260;29;20052;-90
2021/12/24 09:55:10;;;;;;;13.65;7.88;;;;;;;8.92;88.22;99418.22;4876970;29;20088;-91
2021/12/24 09:57:37;;;;;;;12.77;7.53;;;;;;;8.84;87.38;99391.38;4872555;29;20061;-91
2021/12/24 10:00:06;;;;;;;14.02;7.15;;;;;;;9.09;89.40;99421.63;4871389;29;20053;-90
2021/12/24 10:02:44;;;;;;;10.95;6.72;;;;;;;9.06;85.62;99381.34;4874074;29;20034;-90
2021/12/24 10:05:38;;;;;;;12.95;7.38;;;;;;;9.22;86.59;99394.50;4878028;29;20041;-90
2021/12/24 10:08:22;;;;;;;10.90;7.03;;;;;;;9.16;87.08;99382.50;4872170;29;20054;-91
2021/12/24 10:10:59;;;;;;;12.82;7.00;;;;;;;9.10;85.07;99372.31;4871288;29;20106;-90
2021/12/24 10:13:31;;;;;;;12.73;7.47;;;;;;;9.29;86.55;99386.13;4873187;29;20132;-90
2021/12/24 10:16:05;;;;;;;12.73;6.93;;;;;;;9.34;84.46;99365.59;4880311;29;20051;-91
2021/12/24 10:18:38;;;;;;;11.43;6.93;;;;;;;9.40;83.91;99381.09;4870867;29;20125;-91
2021/12/24 10:21:32;;;;;;;11.98;6.38;;;;;;;9.12;84.14;99344.03;4877236;29;20057;-91
2021/12/24 10:24:15;;;;;;;12.20;7.05;;;;;;;9.29;84.15;99377.34;4878313;29;20116;-90
2021/12/24 10:26:48;;;;;;;11.15;6.18;;;;;;;9.28;84.44;99380.97;4875775;29;20056;-91
2021/12/24 10:29:50;;;;;;;11.35;6.95;;;;;;;9.45;84.19;99399.31;4872749;29;20060;-91
2021/12/24 10:32:20;;;;;;;10.57;6.63;;;;;;;9.28;84.36;99380.97;4876998;29;20059;-90
2021/12/24 10:34:47;;;;;;;11.70;6.75;;;;;;;9.12;85.36;99366.00;4874296;29;20089;-90
2021/12/24 10:37:22;;;;;;;11.93;7.28;;;;;;;8.89;85.56;99353.25;4876553;29;20053;-90
2021/12/24 10:39:58;;;;;;;8.50;6.70;;;;;;;8.86;85.48;99342.00;4874583;29;20141;-90
2021/12/24 10:42:29;;;;;;;12.43;6.97;;;;;;;9.00;86.08;99373.75;4878029;29;21262;-91
2021/12/24 10:44:59;;;;;;;9.75;6.43;;;;;;;8.84;85.82;99335.94;4878038;29;20418;-91
2021/12/24 10:47:29;;;;;;;11.15;6.30;;;;;;;9.02;85.92;99363.94;4871929;29;20057;-90
2021/12/24 10:50:06;;;;;;;9.33;6.63;;;;;;;8.94;86.40;99355.63;4870931;29;20052;-90
2021/12/24 10:55:18;;;;;;;11.20;7.05;;;;;;;9.11;85.36;99358.16;4871490;29;20080;-90
2021/12/24 10:57:49;;;;;;;10.35;6.55;;;;;;;9.13;85.09;99367.66;4871715;29;20049;-90
2021/12/24 11:00:22;;;;;;;9.60;6.97;;;;;;;9.19;85.05;99386.75;4875379;29;20049;-92
2021/12/24 11:02:57;;;;;;;12.02;7.15;;;;;;;8.95;85.31;99352.06;4878567;29;20068;-91
2021/12/24 11:05:26;;;;;;;11.65;6.68;;;;;;;8.69;85.63;99324.47;4877506;29;20066;-91
2021/12/24 11:07:53;;;;;;;11.70;6.43;;;;;;;8.68;86.37;99318.34;4874145;29;20155;-90
2021/12/24 11:10:23;;;;;;;13.43;7.30;;;;;;;8.93;86.40;99349.50;4881971;29;20068;-91
2021/12/24 11:13:08;;;;;;;10.77;6.65;;;;;;;9.00;85.70;99348.19;4885207;29;20116;-89
2021/12/24 11:15:34;;;;;;;11.30;6.47;;;;;;;9.19;85.39;99370.91;4883678;29;20092;-89
2021/12/24 11:18:05;;;;;;;17.23;6.90;;;;;;;8.89;85.12;99326.00;4888844;29;20057;-90
2021/12/24 11:20:40;;;;;;;11.85;6.75;;;;;;;9.20;85.37;99381.38;4889935;29;20051;-89
2021/12/24 11:25:43;;;;;;;12.25;6.57;;;;;;;8.93;86.18;99340.72;5125865;23;20057;-90
2021/12/24 11:28:11;;;;;;;12.82;7.32;;;;;;;8.78;85.96;99323.97;4872439;29;20057;-89
2021/12/24 11:30:52;;;;;;;10.07;6.43;;;;;;;9.25;85.31;99381.13;4879113;29;20135;-90
2021/12/24 11:33:35;;;;;;;10.32;6.82;;;;;;;8.96;85.99;99344.03;4877287;29;20095;-90
2021/12/24 11:36:06;;;;;;;9.65;6.32;;;;;;;8.96;85.74;99340.56;4879796;29;20049;-89
2021/12/24 11:38:39;;;;;;;10.60;7.03;;;;;;;9.11;85.47;99363.44;4873863;29;20061;-90
2021/12/24 11:41:11;;;;;;;11.00;6.60;;;;;;;8.86;85.92;99313.81;4880231;29;20053;-89
2021/12/24 11:43:41;;;;;;;10.57;7.05;;;;;;;8.96;86.19;99328.19;4878716;29;20227;-90
2021/12/24 11:46:16;;;;;;;;;;;;;;;9.27;85.64;99374.81;4881061;29;20053;-90
2021/12/24 11:48:45;;;;;;;13.43;7.35;;;;;;;9.04;86.21;99346.22;4903930;29;20011;-90
2021/12/24 11:51:27;;;;;;;11.80;7.25;;;;;;;8.93;86.67;99335.44;4885935;29;20060;-90
2021/12/24 11:54:05;;;;;;;12.75;7.55;;;;;;;8.87;87.03;99312.88;4879316;29;20059;-91
2021/12/24 11:56:53;;;;;;;13.45;7.78;;;;;;;8.86;86.78;99300.59;4882393;29;20053;-91
2021/12/24 11:59:39;;;;;;;12.18;7.38;;;;;;;9.40;87.10;99362.59;4882684;29;20105;-91
2021/12/24 12:02:07;;;;;;;12.93;8.18;;;;;;;9.49;86.38;99354.13;4880093;29;20134;-90
2021/12/24 12:04:35;;;;;;;12.65;7.43;;;;;;;9.29;85.68;99292.81;4888635;29;20072;-90
2021/12/24 12:07:17;;;;;;;12.27;7.50;;;;;;;9.66;85.25;99350.47;4897189;29;20107;-89
2021/12/24 12:09:46;;;;;;;14.50;7.50;;;;;;;9.65;85.74;99343.50;4883959;29;20063;-90
2021/12/24 12:12:16;;;;;;;12.02;6.93;;;;;;;9.53;85.45;99325.72;4879798;29;20048;-89
2021/12/24 12:14:43;;;;;;;13.18;7.47;;;;;;;9.49;85.55;99314.47;4877734;29;20083;-90
2021/12/24 12:17:22;;;;;;;12.23;7.68;;;;;;;9.57;85.38;99307.91;4877149;29;20088;-90
2021/12/24 12:19:59;;;;;;;11.93;7.13;;;;;;;9.49;85.25;99277.50;4873892;29;20501;-90
2021/12/24 12:25:13;;;;;;;14.02;6.65;;;;;;;9.97;84.30;99328.31;4874605;29;20072;-90
2021/12/24 12:28:00;;;;;;;13.63;7.10;;;;;;;10.08;84.19;99312.63;4874465;29;20067;-90
2021/12/24 12:30:36;;;;;;;11.23;6.82;;;;;;;10.42;82.94;99314.03;4877947;29;20128;-89
2021/12/24 12:33:22;;;;;;;14.80;7.15;;;;;;;10.82;80.15;99311.50;4880829;29;20056;-90
2021/12/24 12:36:04;;;;;;;12.73;6.97;;;;;;;10.97;79.62;99299.91;4883536;29;20412;-89
2021/12/24 12:38:41;;;;;;;11.82;6.50;;;;;;;11.19;79.09;99291.34;4875302;29;20049;-90
2021/12/24 12:41:38;;;;;;;11.65;7.00;;;;;;;11.09;77.80;99255.84;4888706;29;20045;-90
2021/12/24 12:44:21;;;;;;;9.05;5.57;;;;;;;11.26;77.00;99300.63;4882099;29;20106;-89
2021/12/24 12:47:17;;;;;;;9.65;6.25;;;;;;;10.92;77.63;99285.25;4888846;29;20080;-92
2021/12/24 12:50:35;;;;;;;;;;;;;;;;;;;;;
2021/12/24 12:53:39;;;;;;;10.00;6.90;;;;;;;10.61;81.07;99308.44;4840144;29;20046;-89
2021/12/24 12:56:18;;;;;;;8.40;6.18;;;;;;;10.64;81.19;99299.44;4842372;29;20058;-89
2021/12/24 12:59:19;;;;;;;13.05;7.28;;;;;;;10.58;81.70;99303.31;4802263;29;20088;-91
2021/12/24 13:01:52;;;;;;;10.65;6.60;;;;;;;10.53;81.89;99294.84;4796409;29;20050;-91
2021/12/24 13:04:25;;;;;;;14.80;7.43;;;;;;;10.59;81.33;99296.25;4800763;29;20051;-90
2021/12/24 13:06:56;;;;;;;10.70;6.57;;;;;;;10.28;82.47;99269.09;4814850;29;20348;-91
2021/12/24 13:09:33;;;;;;;11.05;7.28;;;;;;;10.37;82.35;99299.44;4804913;29;20062;-91
2021/12/24 13:12:22;;;;;;;12.88;7.32;;;;;;;9.84;83.52;99237.47;4808165;29;20130;-91
2021/12/24 13:14:59;;;;;;;9.68;7.55;;;;;;;9.80;84.29;99252.66;4806349;29;20145;-91
2021/12/24 13:17:44;;;;;;;11.50;7.30;;;;;;;9.70;85.06;99261.28;4829430;29;20062;-91
2021/12/24 13:20:32;;;;;;;10.15;7.53;;;;;;;9.62;85.88;99279.38;4846133;29;20520;-92
2021/12/24 13:23:02;;;;;;;11.53;7.07;;;;;;;9.37;86.86;99241.25;4841832;29;20053;-91